Time;durP1;ratioP1;P1;durP2;ratioP2;P2;SDS_P1;SDS_P2;PMS_P1;PMS_P2;Temp;Humidity;BMP_temperature;BMP_pressure;BME280_temperature;BME280_humidity;BME280_pressure;Samples;Min_cycle;Max_cycle;Signal;HPM_P1;HPM_P2
2023/12/19 00:01:17;;;;;;;1.77;0.88;;;5.90;99.90;;;;;;4411283;32;20081;-80
2023/12/19 00:03:42;;;;;;;0.40;0.40;;;5.90;99.90;;;;;;4409065;32;20208;-80
2023/12/19 00:06:07;;;;;;;0.40;0.40;;;5.90;99.90;;;;;;4411538;32;20090;-81
2023/12/19 00:08:33;;;;;;;0.40;0.40;;;5.90;99.90;;;;;;4410174;32;20091;-80
2023/12/19 00:10:59;;;;;;;0.55;0.55;;;6.00;99.90;;;;;;4410420;32;20097;-80
2023/12/19 00:13:24;;;;;;;0.55;0.55;;;6.00;99.90;;;;;;4412362;32;20536;-82
2023/12/19 00:15:49;;;;;;;0.43;0.43;;;6.00;99.90;;;;;;4411737;32;20085;-80
2023/12/19 00:18:15;;;;;;;0.37;0.37;;;5.90;99.90;;;;;;4411499;32;20094;-83
2023/12/19 00:20:41;;;;;;;0.70;0.70;;;5.90;99.90;;;;;;4409986;32;20093;-79
2023/12/19 00:23:07;;;;;;;0.60;0.60;;;6.00;99.90;;;;;;4408394;32;20445;-79
2023/12/19 00:25:32;;;;;;;1.33;1.00;;;6.00;99.90;;;;;;4409542;32;20129;-80
2023/12/19 00:27:58;;;;;;;0.57;0.57;;;5.90;99.90;;;;;;4410607;32;20085;-79
2023/12/19 00:30:26;;;;;;;0.50;0.50;;;5.90;99.90;;;;;;4401531;32;20138;-78
2023/12/19 00:32:51;;;;;;;0.30;0.30;;;5.90;99.90;;;;;;4402763;32;20077;-80
2023/12/19 00:35:17;;;;;;;2.92;1.37;;;5.90;99.90;;;;;;4414596;32;20143;-80
2023/12/19 00:37:42;;;;;;;0.50;0.50;;;6.00;99.90;;;;;;4410829;32;20548;-78
2023/12/19 00:40:10;;;;;;;0.30;0.30;;;6.00;99.90;;;;;;4413354;32;20129;-80
2023/12/19 00:42:37;;;;;;;0.30;0.30;;;6.00;99.90;;;;;;4412309;32;20525;-79
2023/12/19 00:45:03;;;;;;;0.65;0.65;;;6.00;99.90;;;;;;4413059;32;20078;-80
2023/12/19 00:47:29;;;;;;;0.85;0.85;;;6.00;99.90;;;;;;4410087;32;20604;-79
2023/12/19 00:49:54;;;;;;;1.95;0.75;;;6.00;99.90;;;;;;4411517;32;20128;-79
2023/12/19 00:52:20;;;;;;;0.40;0.40;;;6.00;99.90;;;;;;4405968;32;20070;-80
2023/12/19 00:54:45;;;;;;;0.40;0.40;;;6.10;99.90;;;;;;4407273;32;20097;-80
2023/12/19 00:57:10;;;;;;;0.45;0.45;;;6.10;99.90;;;;;;4412492;32;20432;-79
2023/12/19 00:59:36;;;;;;;1.48;0.37;;;6.10;99.90;;;;;;4411437;32;20077;-80
2023/12/19 01:02:01;;;;;;;0.75;0.65;;;6.10;99.90;;;;;;4414400;32;20094;-76
2023/12/19 01:04:27;;;;;;;0.50;0.50;;;6.20;99.90;;;;;;4415140;32;20536;-79
2023/12/19 01:06:52;;;;;;;1.30;0.77;;;6.20;99.90;;;;;;4415747;32;20078;-80
2023/12/19 01:09:18;;;;;;;0.32;0.32;;;6.30;99.90;;;;;;4412030;32;20497;-81
2023/12/19 01:11:43;;;;;;;0.50;0.50;;;6.20;99.90;;;;;;4410746;32;20082;-79
2023/12/19 01:14:09;;;;;;;0.65;0.65;;;6.20;99.90;;;;;;4411392;32;20521;-81
2023/12/19 01:16:34;;;;;;;0.47;0.47;;;6.30;99.90;;;;;;4412689;32;20430;-80
2023/12/19 01:19:02;;;;;;;1.35;1.05;;;6.20;99.90;;;;;;4412956;32;20073;-81
2023/12/19 01:21:27;;;;;;;0.50;0.50;;;6.20;99.90;;;;;;4414517;32;20066;-80
2023/12/19 01:23:53;;;;;;;0.60;0.60;;;6.30;99.90;;;;;;4412525;32;20139;-79
2023/12/19 01:26:19;;;;;;;0.45;0.45;;;6.40;99.90;;;;;;4414821;32;20541;-81
2023/12/19 01:28:44;;;;;;;1.08;1.02;;;6.40;99.90;;;;;;4416184;32;20119;-80
2023/12/19 01:31:09;;;;;;;0.40;0.40;;;6.40;99.90;;;;;;4411266;32;20074;-80
2023/12/19 01:33:35;;;;;;;0.50;0.50;;;6.40;99.90;;;;;;4412369;32;20102;-79
2023/12/19 01:36:02;;;;;;;0.47;0.47;;;6.40;99.90;;;;;;4416147;32;20460;-80
2023/12/19 01:38:27;;;;;;;0.40;0.40;;;6.50;99.90;;;;;;4410985;32;20529;-81
2023/12/19 01:40:53;;;;;;;0.55;0.55;;;6.60;99.90;;;;;;4413315;32;20098;-80
2023/12/19 01:43:19;;;;;;;0.37;0.37;;;6.60;99.90;;;;;;4410138;32;20533;-79
2023/12/19 01:45:46;;;;;;;0.37;0.37;;;6.60;99.90;;;;;;4413510;32;20058;-80
2023/12/19 01:48:13;;;;;;;0.43;0.43;;;6.60;99.90;;;;;;4414680;32;20061;-80
2023/12/19 01:50:39;;;;;;;0.50;0.50;;;6.60;99.90;;;;;;4410665;32;20611;-80
2023/12/19 01:53:05;;;;;;;0.40;0.40;;;6.60;99.90;;;;;;4411544;32;20185;-81
2023/12/19 01:55:30;;;;;;;0.50;0.50;;;6.60;99.90;;;;;;4411446;32;20073;-78
2023/12/19 01:57:56;;;;;;;0.30;0.30;;;6.60;99.90;;;;;;4414994;32;20529;-80
2023/12/19 02:00:22;;;;;;;1.02;0.80;;;6.60;99.90;;;;;;4413085;32;20098;-81
2023/12/19 02:02:50;;;;;;;0.62;0.62;;;6.60;99.90;;;;;;4410082;32;20077;-81
2023/12/19 02:05:16;;;;;;;0.73;0.73;;;6.60;99.90;;;;;;4416075;32;20061;-80
2023/12/19 02:07:43;;;;;;;0.30;0.30;;;6.60;99.90;;;;;;4408482;32;20077;-81
2023/12/19 02:10:09;;;;;;;1.75;1.10;;;6.60;99.90;;;;;;4410606;32;21127;-81
2023/12/19 02:12:35;;;;;;;0.30;0.30;;;6.70;99.90;;;;;;4411821;32;20117;-77
2023/12/19 02:15:01;;;;;;;0.75;0.75;;;6.70;99.90;;;;;;4412050;32;20197;-77
2023/12/19 02:17:26;;;;;;;0.60;0.60;;;6.70;99.90;;;;;;4411355;32;20459;-77
2023/12/19 02:19:52;;;;;;;0.47;0.47;;;6.60;99.90;;;;;;4411454;32;20082;-77
2023/12/19 02:22:18;;;;;;;0.47;0.37;;;6.70;99.90;;;;;;4407278;32;20081;-77
2023/12/19 02:24:44;;;;;;;0.32;0.32;;;6.70;99.90;;;;;;4408369;32;20520;-77
2023/12/19 02:27:11;;;;;;;1.40;0.65;;;6.70;99.90;;;;;;4411626;32;20516;-77
2023/12/19 02:29:37;;;;;;;0.30;0.30;;;6.70;99.90;;;;;;4410977;32;20098;-77
2023/12/19 02:32:02;;;;;;;1.95;1.05;;;6.70;99.90;;;;;;4410164;32;20066;-77
2023/12/19 02:34:29;;;;;;;0.77;0.77;;;6.80;99.90;;;;;;4412427;32;20081;-75
2023/12/19 02:36:55;;;;;;;6.72;0.60;;;6.70;99.90;;;;;;4414532;32;20089;-77
2023/12/19 02:39:20;;;;;;;0.30;0.30;;;6.70;99.90;;;;;;4408928;32;20104;-77
2023/12/19 02:41:46;;;;;;;1.23;0.82;;;6.70;99.90;;;;;;4410813;32;20094;-77
2023/12/19 02:44:11;;;;;;;0.93;0.85;;;6.70;99.90;;;;;;4409940;32;20646;-77
2023/12/19 02:46:37;;;;;;;1.67;0.93;;;6.80;99.90;;;;;;4411207;32;20089;-77
2023/12/19 02:49:02;;;;;;;0.32;0.32;;;6.80;99.90;;;;;;4411525;32;20124;-77
2023/12/19 02:51:29;;;;;;;0.30;0.30;;;6.90;99.90;;;;;;4408067;32;20074;-77
2023/12/19 02:53:57;;;;;;;0.50;0.50;;;6.80;99.90;;;;;;4407659;32;20095;-77
2023/12/19 02:56:23;;;;;;;0.50;0.50;;;6.90;99.90;;;;;;4409696;32;20521;-77
2023/12/19 02:58:48;;;;;;;0.60;0.60;;;6.90;99.90;;;;;;4408339;32;20077;-77
2023/12/19 03:01:14;;;;;;;0.40;0.40;;;6.90;99.90;;;;;;4413356;32;20081;-77
2023/12/19 03:03:41;;;;;;;0.70;0.70;;;7.00;99.90;;;;;;4412164;32;20061;-78
2023/12/19 03:06:07;;;;;;;1.17;1.05;;;7.00;99.90;;;;;;4410520;32;20119;-79
2023/12/19 03:08:34;;;;;;;0.43;0.43;;;7.00;99.90;;;;;;4414898;32;20065;-79
2023/12/19 03:11:00;;;;;;;0.30;0.30;;;6.90;99.90;;;;;;4411245;32;20078;-80
2023/12/19 03:13:25;;;;;;;0.40;0.40;;;7.00;99.90;;;;;;4408923;32;20077;-77
2023/12/19 03:15:51;;;;;;;0.40;0.40;;;7.00;99.90;;;;;;4412066;32;20077;-79
2023/12/19 03:18:23;;;;;;;0.55;0.55;;;7.00;99.90;;;;;;4409935;32;20074;-79
2023/12/19 03:20:49;;;;;;;0.40;0.40;;;7.00;99.90;;;;;;4411642;32;20090;-79
2023/12/19 03:23:15;;;;;;;1.95;0.50;;;7.00;99.90;;;;;;4409888;32;20106;-76
2023/12/19 03:25:41;;;;;;;2.10;1.12;;;7.00;99.90;;;;;;4410183;32;20092;-76
2023/12/19 03:28:06;;;;;;;1.25;0.70;;;7.00;99.90;;;;;;4410817;32;20510;-77
2023/12/19 03:30:31;;;;;;;0.40;0.40;;;7.00;99.90;;;;;;4411824;32;20098;-77
2023/12/19 03:32:57;;;;;;;0.50;0.50;;;7.10;99.90;;;;;;4409034;32;20073;-77
2023/12/19 03:35:23;;;;;;;0.40;0.40;;;7.10;99.90;;;;;;4414765;32;20490;-77
2023/12/19 03:37:50;;;;;;;0.40;0.40;;;7.00;99.90;;;;;;4409183;32;20082;-77
2023/12/19 03:40:16;;;;;;;0.35;0.35;;;7.00;99.90;;;;;;4408991;32;20090;-77
2023/12/19 03:42:42;;;;;;;2.65;0.60;;;7.00;99.90;;;;;;4410569;32;20081;-76
2023/12/19 03:45:08;;;;;;;0.40;0.40;;;7.00;99.90;;;;;;4410717;32;20132;-77
2023/12/19 03:47:35;;;;;;;0.30;0.30;;;7.00;99.90;;;;;;4409955;32;20086;-76
2023/12/19 03:50:00;;;;;;;0.68;0.68;;;7.10;99.90;;;;;;4409886;32;20443;-76
2023/12/19 03:52:26;;;;;;;0.85;0.75;;;7.10;99.90;;;;;;4407255;32;20076;-76
2023/12/19 03:54:52;;;;;;;0.40;0.40;;;7.10;99.90;;;;;;4409600;32;20077;-76
2023/12/19 03:57:17;;;;;;;0.35;0.35;;;7.10;99.90;;;;;;4409885;32;20090;-76
2023/12/19 03:59:43;;;;;;;0.40;0.40;;;7.10;99.90;;;;;;4408486;32;20089;-76
2023/12/19 04:02:09;;;;;;;0.35;0.35;;;7.10;99.90;;;;;;4409925;32;20557;-76
2023/12/19 04:04:35;;;;;;;0.32;0.30;;;7.10;99.90;;;;;;4409691;32;20124;-76
2023/12/19 04:07:00;;;;;;;0.55;0.55;;;7.20;99.90;;;;;;4407732;32;20073;-76
2023/12/19 04:09:26;;;;;;;1.02;0.88;;;7.20;99.90;;;;;;4408348;32;20073;-76
2023/12/19 04:11:51;;;;;;;0.50;0.50;;;7.20;99.90;;;;;;4412050;32;20097;-76
2023/12/19 04:14:17;;;;;;;0.50;0.50;;;7.30;99.90;;;;;;4407923;32;20057;-76
2023/12/19 04:16:43;;;;;;;0.55;0.55;;;7.30;99.90;;;;;;4409733;32;20410;-76
2023/12/19 04:19:09;;;;;;;0.37;0.37;;;7.30;99.90;;;;;;4410041;32;20077;-76
2023/12/19 04:21:36;;;;;;;0.30;0.30;;;7.30;99.90;;;;;;4409263;32;20517;-76
2023/12/19 04:24:03;;;;;;;0.30;0.30;;;7.30;99.90;;;;;;4410142;32;20530;-76
2023/12/19 04:26:29;;;;;;;0.70;0.40;;;7.30;99.90;;;;;;4408676;32;20078;-76
2023/12/19 04:28:54;;;;;;;1.27;0.85;;;7.30;99.90;;;;;;4410813;32;20137;-76
2023/12/19 04:31:20;;;;;;;0.30;0.30;;;7.30;99.90;;;;;;4407468;32;20093;-76
2023/12/19 04:33:45;;;;;;;0.45;0.45;;;7.30;99.90;;;;;;4412879;32;20438;-79
2023/12/19 04:36:11;;;;;;;0.40;0.40;;;7.30;99.90;;;;;;4409940;32;20086;-79
2023/12/19 04:38:38;;;;;;;0.50;0.50;;;7.30;99.90;;;;;;4410039;32;20086;-80
2023/12/19 04:41:03;;;;;;;0.60;0.60;;;7.40;99.90;;;;;;4407372;32;20508;-78
2023/12/19 04:43:29;;;;;;;0.40;0.40;;;7.40;99.90;;;;;;4409563;32;20076;-77
2023/12/19 04:45:54;;;;;;;2.65;0.85;;;7.40;99.90;;;;;;4411281;32;20212;-79
2023/12/19 04:48:20;;;;;;;0.77;0.73;;;7.40;99.90;;;;;;4408585;32;20081;-79
2023/12/19 04:50:45;;;;;;;0.40;0.40;;;7.40;99.90;;;;;;4409855;32;20081;-79
2023/12/19 04:53:11;;;;;;;0.62;0.62;;;7.50;99.90;;;;;;4410119;32;20078;-79
2023/12/19 04:55:36;;;;;;;0.30;0.30;;;7.40;99.90;;;;;;4407937;32;20082;-79
2023/12/19 04:58:02;;;;;;;0.40;0.40;;;7.40;99.90;;;;;;4412618;32;20078;-80
2023/12/19 05:00:27;;;;;;;1.20;0.90;;;7.40;99.90;;;;;;4410549;32;20110;-79
2023/12/19 05:02:53;;;;;;;1.10;1.02;;;7.40;99.90;;;;;;4412562;32;20474;-79
2023/12/19 05:05:19;;;;;;;0.50;0.50;;;7.40;99.90;;;;;;4409463;32;20120;-79
2023/12/19 05:07:45;;;;;;;0.50;0.50;;;7.30;99.90;;;;;;4408625;32;20066;-79
2023/12/19 05:10:11;;;;;;;0.40;0.40;;;7.40;99.90;;;;;;4411373;32;20134;-80
2023/12/19 05:12:37;;;;;;;0.40;0.40;;;7.30;99.90;;;;;;4409743;32;20204;-79
2023/12/19 05:15:03;;;;;;;0.50;0.50;;;7.20;99.90;;;;;;4411790;32;20074;-79
2023/12/19 05:17:29;;;;;;;0.65;0.57;;;7.10;99.90;;;;;;4408708;32;20529;-78
2023/12/19 05:19:55;;;;;;;0.40;0.40;;;7.10;99.90;;;;;;4410175;32;20141;-79
2023/12/19 05:22:20;;;;;;;0.30;0.30;;;7.10;99.90;;;;;;4403484;32;20624;-78
2023/12/19 05:24:46;;;;;;;0.40;0.40;;;7.10;99.90;;;;;;4412935;32;20081;-79
2023/12/19 05:27:11;;;;;;;0.50;0.50;;;7.10;99.90;;;;;;4413924;32;20127;-78
2023/12/19 05:29:37;;;;;;;0.25;0.25;;;7.10;99.90;;;;;;4412204;32;20466;-79
2023/12/19 05:32:04;;;;;;;0.35;0.35;;;7.10;99.90;;;;;;4412832;32;20086;-79
2023/12/19 05:34:29;;;;;;;0.40;0.40;;;7.10;99.90;;;;;;4413665;32;20496;-77
2023/12/19 05:36:55;;;;;;;0.52;0.52;;;7.10;99.90;;;;;;4412471;32;20144;-79
2023/12/19 05:39:20;;;;;;;0.30;0.30;;;7.10;99.90;;;;;;4412238;32;20415;-80
2023/12/19 05:41:45;;;;;;;18.42;0.80;;;7.10;99.90;;;;;;4412481;32;20163;-80
2023/12/19 05:44:12;;;;;;;0.50;0.50;;;7.10;99.90;;;;;;4413182;32;20533;-76
2023/12/19 05:46:38;;;;;;;0.40;0.40;;;7.10;99.90;;;;;;4412485;32;20135;-75
2023/12/19 05:49:04;;;;;;;0.60;0.60;;;7.10;99.90;;;;;;4412008;32;20162;-75
2023/12/19 05:51:30;;;;;;;0.40;0.40;;;7.10;99.90;;;;;;4407380;32;20144;-75
2023/12/19 05:53:58;;;;;;;1.25;0.82;;;7.10;99.90;;;;;;4413588;32;20755;-74
2023/12/19 05:56:25;;;;;;;0.47;0.47;;;7.10;99.90;;;;;;4408501;32;20495;-74
2023/12/19 05:58:50;;;;;;;0.30;0.30;;;7.20;99.90;;;;;;4411204;32;20078;-76
2023/12/19 06:01:16;;;;;;;0.65;0.60;;;7.20;99.90;;;;;;4407819;32;20093;-77
2023/12/19 06:03:42;;;;;;;0.40;0.40;;;7.20;99.90;;;;;;4412125;32;20102;-77
2023/12/19 06:06:12;;;;;;;0.88;0.82;;;7.10;99.90;;;;;;4397665;32;20596;-77
2023/12/19 06:08:37;;;;;;;0.40;0.40;;;7.10;99.90;;;;;;4405779;32;20112;-74
2023/12/19 06:11:03;;;;;;;0.32;0.32;;;7.10;99.90;;;;;;4410980;32;20512;-75
2023/12/19 06:13:29;;;;;;;0.28;0.28;;;7.10;99.90;;;;;;4400138;32;20714;-75
2023/12/19 06:15:55;;;;;;;0.40;0.40;;;7.10;99.90;;;;;;4409216;32;20082;-75
2023/12/19 06:18:20;;;;;;;0.40;0.40;;;7.10;99.90;;;;;;4407123;32;20486;-76
2023/12/19 06:20:46;;;;;;;0.55;0.55;;;7.10;99.90;;;;;;4399286;32;20089;-77
2023/12/19 06:23:13;;;;;;;0.30;0.30;;;7.10;99.90;;;;;;4398081;32;20065;-75
2023/12/19 06:25:39;;;;;;;0.60;0.60;;;7.10;99.90;;;;;;4402343;32;20683;-75
2023/12/19 06:28:06;;;;;;;0.40;0.40;;;7.10;99.90;;;;;;4393789;32;20616;-76
2023/12/19 06:30:33;;;;;;;1.75;1.00;;;7.10;99.90;;;;;;4399975;32;20137;-76
2023/12/19 06:32:59;;;;;;;0.47;0.47;;;7.20;99.90;;;;;;4406079;32;21192;-76
2023/12/19 06:35:24;;;;;;;0.93;0.93;;;7.20;99.90;;;;;;4405811;32;20081;-77
2023/12/19 06:37:50;;;;;;;0.30;0.30;;;7.20;99.90;;;;;;4400293;32;20081;-77
2023/12/19 06:40:16;;;;;;;0.50;0.50;;;7.20;99.90;;;;;;4403914;32;20140;-76
2023/12/19 06:42:42;;;;;;;0.40;0.40;;;7.20;99.90;;;;;;4406138;32;20077;-77
2023/12/19 06:45:08;;;;;;;0.37;0.37;;;7.20;99.90;;;;;;4398238;32;20085;-76
2023/12/19 06:47:35;;;;;;;0.40;0.40;;;7.20;99.90;;;;;;4406122;32;20127;-77
2023/12/19 06:50:03;;;;;;;0.40;0.40;;;7.20;99.90;;;;;;4403512;32;21561;-75
2023/12/19 06:52:29;;;;;;;0.50;0.50;;;7.10;99.90;;;;;;4402488;32;20176;-76
2023/12/19 06:54:55;;;;;;;0.40;0.40;;;7.00;99.90;;;;;;4406617;32;20097;-76
2023/12/19 06:57:20;;;;;;;0.70;0.70;;;7.10;99.90;;;;;;4403615;32;20085;-76
2023/12/19 06:59:46;;;;;;;0.30;0.30;;;7.10;99.90;;;;;;4394517;32;20397;-77
2023/12/19 07:02:11;;;;;;;0.40;0.40;;;7.10;99.90;;;;;;4394524;32;20164;-76
2023/12/19 07:04:37;;;;;;;0.77;0.60;;;7.10;99.90;;;;;;4400692;32;20102;-79
2023/12/19 07:07:03;;;;;;;2.83;0.70;;;7.20;99.90;;;;;;4399238;32;20097;-77
2023/12/19 07:09:28;;;;;;;0.37;0.37;;;7.20;99.90;;;;;;4393452;32;20090;-77
2023/12/19 07:11:57;;;;;;;0.70;0.70;;;7.20;99.90;;;;;;4393877;32;20145;-80
2023/12/19 07:14:23;;;;;;;0.50;0.50;;;7.20;99.90;;;;;;4398960;32;20086;-78
2023/12/19 07:16:50;;;;;;;0.43;0.43;;;7.20;99.90;;;;;;4399340;32;20110;-78
2023/12/19 07:19:16;;;;;;;2.80;0.93;;;7.20;99.90;;;;;;4398681;32;20089;-78
2023/12/19 07:21:43;;;;;;;0.60;0.60;;;7.20;99.90;;;;;;4385242;32;21023;-77
2023/12/19 07:24:09;;;;;;;0.40;0.40;;;7.20;99.90;;;;;;4392415;32;20078;-77
2023/12/19 07:26:35;;;;;;;0.50;0.50;;;7.20;99.90;;;;;;4387313;32;20525;-76
2023/12/19 07:29:02;;;;;;;0.62;0.50;;;7.20;99.90;;;;;;4388315;32;20451;-77
2023/12/19 07:31:31;;;;;;;0.60;0.60;;;7.20;99.90;;;;;;4389094;32;20184;-78
2023/12/19 07:33:59;;;;;;;0.98;0.75;;;7.20;99.90;;;;;;4395672;32;20439;-77
2023/12/19 07:36:27;;;;;;;0.70;0.70;;;7.20;99.90;;;;;;4387943;32;20081;-79
2023/12/19 07:38:53;;;;;;;0.40;0.40;;;7.20;99.90;;;;;;4387725;32;20089;-76
2023/12/19 07:41:26;;;;;;;3.30;1.85;;;7.20;99.90;;;;;;4386814;32;20201;-76
2023/12/19 07:43:52;;;;;;;0.50;0.50;;;7.20;99.90;;;;;;4390521;32;20097;-76
2023/12/19 07:46:19;;;;;;;0.45;0.45;;;7.20;99.90;;;;;;4386968;32;20101;-77
2023/12/19 07:48:45;;;;;;;2.10;1.30;;;7.20;99.90;;;;;;4395215;32;20426;-76
2023/12/19 07:51:16;;;;;;;0.40;0.40;;;7.10;99.90;;;;;;4397869;32;20070;-75
2023/12/19 07:53:41;;;;;;;0.35;0.35;;;7.20;99.90;;;;;;4394988;32;20652;-77
2023/12/19 07:56:08;;;;;;;0.50;0.50;;;7.30;99.90;;;;;;4392903;32;20090;-78
2023/12/19 07:58:33;;;;;;;0.40;0.40;;;7.30;99.90;;;;;;4395767;32;20192;-79
2023/12/19 08:00:59;;;;;;;3.12;1.48;;;7.30;99.90;;;;;;4386291;32;20764;-78
2023/12/19 08:03:25;;;;;;;0.37;0.37;;;7.20;99.90;;;;;;4391234;32;20070;-76
2023/12/19 08:05:53;;;;;;;0.60;0.60;;;7.20;99.90;;;;;;4388756;32;20077;-75
2023/12/19 08:08:19;;;;;;;0.55;0.55;;;7.30;99.90;;;;;;4393647;32;20536;-76
2023/12/19 08:10:45;;;;;;;0.28;0.28;;;7.40;99.90;;;;;;4392068;32;20097;-75
2023/12/19 08:13:12;;;;;;;0.32;0.32;;;7.40;99.90;;;;;;4395347;32;20549;-76
2023/12/19 08:15:40;;;;;;;0.52;0.52;;;7.30;99.90;;;;;;4398346;32;20612;-76
2023/12/19 08:18:07;;;;;;;0.50;0.50;;;7.30;99.90;;;;;;4395890;32;20176;-76
2023/12/19 08:20:33;;;;;;;0.88;0.88;;;7.20;99.90;;;;;;4388074;32;20453;-75
2023/12/19 08:23:00;;;;;;;1.35;0.50;;;7.20;99.90;;;;;;4392035;32;20094;-77
2023/12/19 08:25:25;;;;;;;0.40;0.40;;;7.20;99.90;;;;;;4389305;32;20576;-76
2023/12/19 08:27:51;;;;;;;1.30;0.70;;;7.20;99.90;;;;;;4386339;32;20323;-76
2023/12/19 08:30:17;;;;;;;0.43;0.43;;;7.10;99.90;;;;;;4383118;32;20109;-77
2023/12/19 08:32:43;;;;;;;2.85;1.00;;;7.10;99.90;;;;;;4381356;32;20101;-76
2023/12/19 08:35:09;;;;;;;0.60;0.60;;;7.10;99.90;;;;;;4384376;32;20089;-77
2023/12/19 08:37:35;;;;;;;0.40;0.40;;;7.10;99.90;;;;;;4397544;32;20073;-76
2023/12/19 08:40:03;;;;;;;0.50;0.50;;;6.90;99.90;;;;;;4399296;32;20073;-77
2023/12/19 08:42:29;;;;;;;0.88;0.70;;;6.80;99.90;;;;;;4398347;32;20106;-77
2023/12/19 08:44:55;;;;;;;0.50;0.50;;;6.80;99.90;;;;;;4402016;32;20514;-77
2023/12/19 08:47:22;;;;;;;1.87;1.30;;;6.80;99.90;;;;;;4385187;32;20462;-76
2023/12/19 08:49:48;;;;;;;0.98;0.80;;;6.90;99.90;;;;;;4382381;32;20475;-79
2023/12/19 08:52:14;;;;;;;0.45;0.45;;;6.80;99.90;;;;;;4382164;32;20577;-76
2023/12/19 08:54:40;;;;;;;1.15;0.98;;;6.90;99.90;;;;;;4376924;32;20106;-77
2023/12/19 08:57:05;;;;;;;0.57;0.57;;;6.90;99.90;;;;;;4380080;32;20094;-77
2023/12/19 08:59:31;;;;;;;0.30;0.30;;;6.90;99.90;;;;;;4392301;32;21385;-74
2023/12/19 09:01:57;;;;;;;0.77;0.77;;;6.90;99.90;;;;;;4380569;32;20090;-76
2023/12/19 09:04:22;;;;;;;0.40;0.40;;;7.00;99.90;;;;;;4386231;32;20308;-76
2023/12/19 09:06:48;;;;;;;0.30;0.30;;;7.00;99.90;;;;;;4387803;32;20081;-76
2023/12/19 09:09:14;;;;;;;0.75;0.62;;;7.00;99.90;;;;;;4378508;32;20098;-76
2023/12/19 09:11:40;;;;;;;0.82;0.57;;;7.00;99.90;;;;;;4386656;32;20077;-75
2023/12/19 09:14:06;;;;;;;0.88;0.82;;;7.10;99.90;;;;;;4390715;32;20236;-76
2023/12/19 09:16:32;;;;;;;0.98;0.90;;;7.10;99.90;;;;;;4393369;32;20365;-76
2023/12/19 09:18:59;;;;;;;0.65;0.65;;;7.10;99.90;;;;;;4388166;32;20577;-79
2023/12/19 09:21:26;;;;;;;0.40;0.40;;;7.10;99.90;;;;;;4389849;32;20090;-78
2023/12/19 09:23:52;;;;;;;0.57;0.57;;;7.10;99.90;;;;;;4377504;32;20177;-77
2023/12/19 09:26:17;;;;;;;1.17;0.60;;;7.10;99.90;;;;;;4377597;32;20576;-77
2023/12/19 09:28:43;;;;;;;0.37;0.37;;;7.20;99.90;;;;;;4375496;32;20605;-76
2023/12/19 09:31:08;;;;;;;1.98;1.30;;;7.20;99.90;;;;;;4378833;32;20596;-77
2023/12/19 09:33:37;;;;;;;0.52;0.52;;;7.10;99.90;;;;;;4380636;32;20086;-77
2023/12/19 09:36:04;;;;;;;0.57;0.57;;;7.10;99.90;;;;;;4374207;32;20094;-77
2023/12/19 09:38:30;;;;;;;0.40;0.40;;;7.10;99.90;;;;;;4369220;32;20521;-77
2023/12/19 09:40:56;;;;;;;1.55;0.70;;;7.00;99.90;;;;;;4383861;32;20087;-77
2023/12/19 09:43:22;;;;;;;0.85;0.68;;;7.00;99.90;;;;;;4388265;32;20419;-77
2023/12/19 09:45:48;;;;;;;0.88;0.62;;;6.90;99.90;;;;;;4391352;32;20592;-78
2023/12/19 09:48:15;;;;;;;0.50;0.50;;;6.90;99.90;;;;;;4395491;32;20109;-78
2023/12/19 09:50:43;;;;;;;0.35;0.35;;;6.80;99.90;;;;;;4389065;32;20211;-76
2023/12/19 09:53:10;;;;;;;20.98;1.40;;;6.80;99.90;;;;;;4377424;32;20108;-76
2023/12/19 09:55:42;;;;;;;0.60;0.60;;;6.70;99.90;;;;;;4378849;32;20618;-78
2023/12/19 09:58:09;;;;;;;0.50;0.50;;;6.70;99.90;;;;;;4387164;32;20821;-78
2023/12/19 10:00:36;;;;;;;0.32;0.32;;;6.70;99.90;;;;;;4396859;32;20098;-78
2023/12/19 10:03:03;;;;;;;5.05;1.20;;;6.70;99.90;;;;;;4384470;32;20069;-78
2023/12/19 10:05:29;;;;;;;0.93;0.85;;;6.70;99.90;;;;;;4390483;32;20093;-77
2023/12/19 10:07:57;;;;;;;0.47;0.47;;;6.70;99.90;;;;;;4384688;32;20468;-77
2023/12/19 10:10:42;;;;;;;0.40;0.40;;;6.70;99.90;;;;;;4388934;32;20110;-80
2023/12/19 10:13:09;;;;;;;0.55;0.55;;;6.70;99.90;;;;;;4382176;32;20130;-78
2023/12/19 10:15:35;;;;;;;0.90;0.77;;;6.80;99.90;;;;;;4391473;32;20086;-78
2023/12/19 10:18:04;;;;;;;0.30;0.30;;;6.90;99.90;;;;;;4392894;32;20110;-77
2023/12/19 10:20:30;;;;;;;0.80;0.80;;;6.80;99.90;;;;;;4395927;32;20207;-78
2023/12/19 10:23:04;;;;;;;0.73;0.70;;;6.80;99.90;;;;;;4391716;32;20069;-77
2023/12/19 10:25:31;;;;;;;0.52;0.50;;;6.80;99.90;;;;;;4374212;32;20073;-75
2023/12/19 10:28:09;;;;;;;0.37;0.37;;;6.80;99.90;;;;;;4385795;32;20110;-77
2023/12/19 10:30:36;;;;;;;1.05;0.77;;;6.80;99.90;;;;;;4377430;32;20109;-77
2023/12/19 10:33:03;;;;;;;0.98;0.95;;;6.70;99.90;;;;;;4368508;32;20150;-76
2023/12/19 10:35:37;;;;;;;1.95;1.37;;;6.70;99.90;;;;;;4380093;32;20686;-78
2023/12/19 10:38:05;;;;;;;0.55;0.55;;;6.70;99.90;;;;;;4372014;32;21521;-78
2023/12/19 10:40:31;;;;;;;1.02;0.93;;;6.70;99.90;;;;;;4378135;32;20608;-77
2023/12/19 10:42:57;;;;;;;0.50;0.50;;;6.80;99.90;;;;;;4373567;32;20101;-78
2023/12/19 10:45:24;;;;;;;0.40;0.40;;;6.70;99.90;;;;;;4377476;32;20792;-77
2023/12/19 10:47:50;;;;;;;0.52;0.52;;;6.70;99.90;;;;;;4384883;32;20097;-79
2023/12/19 10:50:15;;;;;;;1.02;0.62;;;6.60;99.90;;;;;;4382069;32;20086;-77
2023/12/19 10:52:44;;;;;;;1.20;1.05;;;6.60;99.90;;;;;;4384192;32;20089;-77
2023/12/19 10:55:17;;;;;;;0.70;0.70;;;6.70;99.90;;;;;;4378334;32;20326;-79
2023/12/19 10:57:47;;;;;;;0.50;0.50;;;6.70;99.90;;;;;;4386120;32;20568;-78
2023/12/19 11:00:17;;;;;;;0.50;0.50;;;6.70;99.90;;;;;;4385792;32;20083;-78
2023/12/19 11:03:05;;;;;;;0.62;0.62;;;6.80;99.90;;;;;;4378461;32;20160;-78
2023/12/19 11:05:48;;;;;;;0.60;0.60;;;6.70;99.90;;;;;;4376359;32;20512;-78
2023/12/19 11:08:17;;;;;;;0.60;0.60;;;6.70;99.90;;;;;;4376215;32;20096;-78
2023/12/19 11:10:55;;;;;;;0.65;0.65;;;6.80;99.90;;;;;;4374757;32;20284;-79
2023/12/19 11:13:22;;;;;;;0.40;0.40;;;6.80;99.90;;;;;;4387638;32;20529;-75
2023/12/19 11:15:55;;;;;;;1.15;0.88;;;6.80;99.90;;;;;;4390697;32;20124;-78
2023/12/19 11:18:44;;;;;;;6.70;1.87;;;6.70;99.90;;;;;;4388375;32;20081;-76
2023/12/19 11:21:18;;;;;;;0.60;0.60;;;6.70;99.90;;;;;;4376712;32;20189;-76
2023/12/19 11:23:56;;;;;;;1.17;0.75;;;6.80;99.90;;;;;;4381767;32;20118;-76
2023/12/19 11:26:33;;;;;;;1.35;1.17;;;6.80;99.90;;;;;;4383614;32;20266;-77
2023/12/19 11:28:59;;;;;;;0.47;0.47;;;6.80;99.90;;;;;;4390722;32;20619;-76
2023/12/19 11:31:30;;;;;;;0.70;0.70;;;6.80;99.90;;;;;;4387602;32;20097;-76
2023/12/19 11:33:59;;;;;;;3.53;0.77;;;6.80;99.90;;;;;;4392642;32;20081;-76
2023/12/19 11:36:25;;;;;;;0.93;0.68;;;6.70;99.90;;;;;;4394199;32;20572;-76
2023/12/19 11:39:11;;;;;;;0.50;0.50;;;6.90;99.90;;;;;;4392226;32;20077;-76
2023/12/19 11:41:37;;;;;;;0.77;0.75;;;6.90;99.90;;;;;;4400096;32;20089;-77
2023/12/19 11:44:03;;;;;;;1.25;1.15;;;6.90;99.90;;;;;;4391088;32;20237;-76
2023/12/19 11:46:28;;;;;;;0.68;0.68;;;6.90;99.90;;;;;;4384065;32;20152;-76
2023/12/19 11:48:55;;;;;;;0.75;0.70;;;6.90;99.90;;;;;;4390281;32;20425;-77
2023/12/19 11:51:42;;;;;;;0.45;0.45;;;6.90;99.90;;;;;;4379779;32;118402;-78
2023/12/19 11:54:10;;;;;;;0.93;0.80;;;6.90;99.90;;;;;;4372608;32;20798;-76
2023/12/19 11:56:38;;;;;;;1.90;1.37;;;6.90;99.90;;;;;;4376030;32;20109;-76
2023/12/19 11:59:03;;;;;;;0.65;0.65;;;6.80;99.90;;;;;;4369011;32;20261;-76
2023/12/19 12:01:39;;;;;;;0.55;0.55;;;6.80;99.90;;;;;;4378808;32;20066;-77
2023/12/19 12:04:06;;;;;;;1.35;0.60;;;6.90;99.90;;;;;;4411987;27;20165;-59
2023/12/19 12:06:32;;;;;;;0.55;0.55;;;6.90;99.90;;;;;;4371977;32;20232;-60
2023/12/19 12:08:59;;;;;;;4.07;0.70;;;7.00;99.90;;;;;;4387924;32;20159;-61
2023/12/19 12:11:25;;;;;;;0.80;0.80;;;7.00;99.90;;;;;;4387127;32;20109;-61
2023/12/19 12:14:06;;;;;;;0.43;0.43;;;7.00;99.90;;;;;;4376612;32;20973;-60
2023/12/19 12:16:37;;;;;;;1.48;1.35;;;7.00;99.90;;;;;;4388148;32;20072;-60
2023/12/19 12:19:12;;;;;;;0.70;0.70;;;6.90;99.90;;;;;;4368517;32;20082;-61
2023/12/19 12:21:47;;;;;;;0.30;0.30;;;7.00;99.90;;;;;;4375394;32;20550;-61
2023/12/19 12:24:22;;;;;;;0.77;0.77;;;7.00;99.90;;;;;;4357594;32;20124;-59
2023/12/19 12:26:49;;;;;;;1.00;0.77;;;7.00;99.90;;;;;;4384335;32;20105;-61
2023/12/19 12:29:16;;;;;;;0.47;0.47;;;7.00;99.90;;;;;;4368792;32;20696;-61
2023/12/19 12:31:42;;;;;;;1.52;0.88;;;7.00;99.90;;;;;;4370972;32;20121;-61
2023/12/19 12:34:07;;;;;;;0.50;0.50;;;7.00;99.90;;;;;;4372577;32;20469;-61
2023/12/19 12:36:33;;;;;;;0.60;0.60;;;7.00;99.90;;;;;;4365190;32;20963;-59
2023/12/19 12:38:58;;;;;;;2.00;0.65;;;7.00;99.90;;;;;;4371078;32;20086;-58
2023/12/19 12:41:24;;;;;;;0.70;0.70;;;7.00;99.90;;;;;;4399882;32;20070;-61
2023/12/19 12:43:50;;;;;;;1.60;1.27;;;7.00;99.90;;;;;;4412491;32;20137;-63
2023/12/19 12:46:24;;;;;;;6.93;2.22;;;7.10;99.90;;;;;;4408539;32;20205;-61
2023/12/19 12:51:26;;;;;;;0.77;0.77;;;7.10;99.90;;;;;;4432949;27;20107;-60
2023/12/19 12:53:57;;;;;;;0.80;0.80;;;7.10;99.90;;;;;;4338421;32;20122;-59
2023/12/19 12:56:40;;;;;;;0.50;0.50;;;7.00;99.90;;;;;;4355217;32;20079;-62
2023/12/19 12:59:07;;;;;;;0.85;0.85;;;7.00;99.90;;;;;;4348858;32;20134;-63